Time;durP1;ratioP1;P1;durP2;ratioP2;P2;SDS_P1;SDS_P2;PMS_P1;PMS_P2;Temp;Humidity;BMP_temperature;BMP_pressure;BME280_temperature;BME280_humidity;BME280_pressure;Samples;Min_cycle;Max_cycle;Signal;HPM_P1;HPM_P2
2022/01/08 00:00:14;;;;;;;;;;;2.20;51.30;;;;;;5056255;28;20008;-57
2022/01/08 00:02:40;;;;;;;;;;;2.20;51.50;;;;;;5055949;28;19946;-58
2022/01/08 00:05:06;;;;;;;;;;;2.20;51.80;;;;;;5056072;28;19913;-59
2022/01/08 00:07:31;;;;;;;;;;;2.30;52.30;;;;;;5056119;28;19909;-59
2022/01/08 00:09:57;;;;;;;;;;;2.10;52.70;;;;;;5056010;28;19909;-59
2022/01/08 00:12:23;;;;;;;;;;;2.20;52.90;;;;;;5055919;28;19952;-59
2022/01/08 00:14:49;;;;;;;;;;;2.30;52.90;;;;;;5055813;28;19932;-58
2022/01/08 00:17:15;;;;;;;;;;;2.40;52.80;;;;;;5055875;28;20376;-57
2022/01/08 00:19:40;;;;;;;;;;;2.40;53.00;;;;;;5055755;28;20373;-57
2022/01/08 00:22:06;;;;;;;;;;;2.40;52.80;;;;;;5055958;28;19951;-59
2022/01/08 00:24:32;;;;;;;;;;;2.30;52.60;;;;;;5055769;28;19908;-58
2022/01/08 00:26:58;;;;;;;;;;;2.20;53.10;;;;;;5055599;28;20331;-59
2022/01/08 00:29:23;;;;;;;;;;;2.30;53.40;;;;;;5055789;28;19913;-59
2022/01/08 00:31:49;;;;;;;;;;;2.30;53.20;;;;;;5055434;28;20340;-58
2022/01/08 00:34:14;;;;;;;;;;;2.10;53.20;;;;;;5055515;28;19916;-57
2022/01/08 00:36:40;;;;;;;;;;;2.20;53.30;;;;;;5055599;28;19917;-59
2022/01/08 00:39:05;;;;;;;;;;;2.30;53.10;;;;;;5055195;28;20035;-58
2022/01/08 00:41:31;;;;;;;;;;;2.10;53.50;;;;;;5055516;28;19909;-59
2022/01/08 00:43:57;;;;;;;;;;;2.00;53.90;;;;;;5055299;28;19916;-58
2022/01/08 00:46:22;;;;;;;;;;;2.00;54.20;;;;;;5055173;28;19912;-59
2022/01/08 00:48:48;;;;;;;;;;;2.00;54.20;;;;;;5055314;28;19919;-59
2022/01/08 00:51:14;;;;;;;;;;;2.00;54.30;;;;;;5055033;28;19917;-58
2022/01/08 00:53:39;;;;;;;;;;;2.10;54.30;;;;;;5055258;28;20008;-59
2022/01/08 00:56:05;;;;;;;;;;;2.10;54.00;;;;;;5055142;28;19916;-57
2022/01/08 00:58:31;;;;;;;;;;;2.00;54.30;;;;;;5055041;28;20385;-58
2022/01/08 01:00:56;;;;;;;;;;;2.20;54.30;;;;;;5054976;28;19956;-57
2022/01/08 01:03:22;;;;;;;;;;;2.20;54.30;;;;;;5054494;28;19916;-59
2022/01/08 01:05:48;;;;;;;;;;;2.30;54.30;;;;;;5054877;28;19995;-59
2022/01/08 01:08:13;;;;;;;;;;;2.10;54.60;;;;;;5054864;28;20312;-59
2022/01/08 01:10:40;;;;;;;;;;;2.10;54.80;;;;;;5054703;28;19952;-60
2022/01/08 01:13:05;;;;;;;;;;;2.20;54.50;;;;;;5054687;28;19916;-59
2022/01/08 01:15:31;;;;;;;;;;;2.20;54.50;;;;;;5054620;28;19909;-58
2022/01/08 01:17:56;;;;;;;;;;;2.10;54.80;;;;;;5054640;28;19913;-59
2022/01/08 01:20:22;;;;;;;;;;;2.00;55.10;;;;;;5054799;28;19909;-59
2022/01/08 01:25:22;;;;;;;;;;;2.10;54.40;;;;;;5054608;28;19963;-59
2022/01/08 01:27:58;;;;;;;;;;;2.10;54.40;;;;;;5054822;28;19909;-61
2022/01/08 01:47:01;;;;;;;;;;;2.10;53.40;;;;;;5034286;28;19913;-58
2022/01/08 01:49:31;;;;;;;;;;;2.00;53.80;;;;;;5034065;28;19959;-59
2022/01/08 01:51:59;;;;;;;;;;;2.00;53.90;;;;;;5034055;28;19948;-58
2022/01/08 01:54:25;;;;;;;;;;;2.00;54.10;;;;;;5034075;28;19920;-59
2022/01/08 01:56:50;;;;;;;;;;;2.00;54.00;;;;;;5034184;28;19954;-59
2022/01/08 01:59:16;;;;;;;;;;;2.00;54.10;;;;;;5033925;28;19992;-60
2022/01/08 02:01:42;;;;;;;;;;;2.00;53.80;;;;;;5033919;28;20250;-59
2022/01/08 02:04:07;;;;;;;;;;;2.00;54.10;;;;;;5034072;28;19910;-58
2022/01/08 02:06:33;;;;;;;;;;;2.00;54.00;;;;;;5033985;28;20021;-58
2022/01/08 02:08:58;;;;;;;;;;;2.00;54.20;;;;;;5033916;28;19916;-58
2022/01/08 02:11:24;;;;;;;;;;;2.10;53.90;;;;;;5033950;28;19913;-58
2022/01/08 02:13:49;;;;;;;;;;;2.00;53.90;;;;;;5033066;28;19909;-59
2022/01/08 02:16:18;;;;;;;;;;;2.00;53.50;;;;;;5016238;28;19916;-59
2022/01/08 02:18:45;;;;;;;;;;;2.10;53.50;;;;;;5033885;28;20375;-58
2022/01/08 02:21:12;;;;;;;;;;;2.00;54.00;;;;;;5033940;28;19909;-58
2022/01/08 02:23:38;;;;;;;;;;;2.10;53.80;;;;;;5033665;28;19920;-58
2022/01/08 02:26:05;;;;;;;;;;;2.00;53.80;;;;;;5033488;28;19913;-60
2022/01/08 02:28:30;;;;;;;;;;;1.90;53.80;;;;;;5033680;28;19962;-58
2022/01/08 02:30:56;;;;;;;;;;;1.80;54.40;;;;;;5015819;28;19913;-60
2022/01/08 02:33:25;;;;;;;;;;;1.90;53.90;;;;;;5033563;28;19984;-59
2022/01/08 02:35:51;;;;;;;;;;;1.90;53.70;;;;;;5033599;28;19966;-60
2022/01/08 02:38:16;;;;;;;;;;;1.80;54.20;;;;;;5033364;28;20557;-60
2022/01/08 02:40:50;;;;;;;;;;;1.70;53.90;;;;;;5033456;28;20052;-60
2022/01/08 02:43:16;;;;;;;;;;;1.80;53.40;;;;;;5033112;28;20285;-60
2022/01/08 02:45:42;;;;;;;;;;;1.80;53.10;;;;;;5033491;28;19909;-61
2022/01/08 02:48:07;;;;;;;;;;;1.80;53.20;;;;;;5033425;28;19913;-60
2022/01/08 02:50:33;;;;;;;;;;;1.90;53.00;;;;;;5033253;28;19909;-61
2022/01/08 02:52:59;;;;;;;;;;;1.90;52.40;;;;;;5033005;28;19952;-59
2022/01/08 02:55:24;;;;;;;;;;;2.00;52.20;;;;;;5033281;28;20320;-60
2022/01/08 02:57:50;;;;;;;;;;;1.90;52.00;;;;;;5033357;28;19996;-59
2022/01/08 03:00:17;;;;;;;;;;;1.90;52.00;;;;;;5033131;28;19963;-59
2022/01/08 03:02:43;;;;;;;;;;;1.90;51.70;;;;;;5032932;28;19913;-58
2022/01/08 03:05:11;;;;;;;;;;;1.90;51.70;;;;;;5033238;28;19909;-60
2022/01/08 03:07:40;;;;;;;;;;;2.00;51.40;;;;;;5033080;28;20288;-58
2022/01/08 03:10:10;;;;;;;;;;;2.10;50.40;;;;;;5033085;28;20396;-62
2022/01/08 03:12:38;;;;;;;;;;;2.20;49.00;;;;;;5032954;28;20012;-60
2022/01/08 03:15:04;;;;;;;;;;;2.20;48.10;;;;;;5033177;28;20039;-60
2022/01/08 03:17:30;;;;;;;;;;;2.40;47.90;;;;;;5033064;28;19910;-60
2022/01/08 03:20:02;;;;;;;;;;;2.40;47.30;;;;;;5032794;28;19984;-58
2022/01/08 03:22:29;;;;;;;;;;;2.40;46.80;;;;;;5033037;28;20028;-59
2022/01/08 03:24:54;;;;;;;;;;;2.50;47.20;;;;;;5032966;28;19913;-62
2022/01/08 03:27:20;;;;;;;;;;;2.30;47.30;;;;;;5037216;28;19913;-58
2022/01/08 03:29:45;;;;;;;;;;;2.40;46.90;;;;;;5036799;28;20019;-60
2022/01/08 03:32:11;;;;;;;;;;;2.30;47.30;;;;;;5036645;28;19964;-58
2022/01/08 03:34:36;;;;;;;;;;;2.40;47.40;;;;;;5037019;28;19909;-60
2022/01/08 03:37:02;;;;;;;;;;;2.50;46.70;;;;;;5040755;28;19910;-58
2022/01/08 03:39:28;;;;;;;;;;;2.50;46.30;;;;;;5042884;28;19921;-58
2022/01/08 03:41:53;;;;;;;;;;;2.50;46.60;;;;;;5036595;28;20320;-58
2022/01/08 03:44:19;;;;;;;;;;;2.20;46.80;;;;;;5036568;28;20292;-58
2022/01/08 03:46:45;;;;;;;;;;;2.30;47.20;;;;;;5036824;28;19935;-58
2022/01/08 03:49:22;;;;;;;;;;;2.30;47.20;;;;;;5036373;28;19909;-60
2022/01/08 03:51:48;;;;;;;;;;;2.30;47.40;;;;;;5036257;28;19917;-59
2022/01/08 03:54:13;;;;;;;;;;;2.00;48.30;;;;;;5036148;28;20153;-60
2022/01/08 03:56:39;;;;;;;;;;;2.10;48.90;;;;;;5036224;28;19944;-58
2022/01/08 03:59:04;;;;;;;;;;;2.10;48.90;;;;;;5036512;28;19913;-58
2022/01/08 04:01:30;;;;;;;;;;;2.20;49.30;;;;;;5036071;28;20379;-57
2022/01/08 04:03:56;;;;;;;;;;;2.10;49.70;;;;;;5036150;28;19913;-58
2022/01/08 04:06:22;;;;;;;;;;;2.20;49.10;;;;;;5035984;28;19909;-60
2022/01/08 04:08:48;;;;;;;;;;;2.20;49.40;;;;;;5035982;28;20311;-59
2022/01/08 04:11:13;;;;;;;;;;;2.00;50.30;;;;;;5035912;28;19913;-59
2022/01/08 04:13:41;;;;;;;;;;;2.00;51.00;;;;;;5035856;28;19913;-59
2022/01/08 04:16:13;;;;;;;;;;;2.00;51.20;;;;;;5036119;28;19909;-58
2022/01/08 04:18:39;;;;;;;;;;;2.00;51.20;;;;;;5018188;28;20003;-59
2022/01/08 04:23:49;;;;;;;;;;;2.10;51.10;;;;;;5035957;28;19916;-59
2022/01/08 04:26:14;;;;;;;;;;;2.20;51.20;;;;;;5018172;28;19999;-59
2022/01/08 04:28:40;;;;;;;;;;;2.20;51.00;;;;;;5017923;28;19920;-57
2022/01/08 04:31:05;;;;;;;;;;;2.10;51.20;;;;;;5035636;28;19964;-58
2022/01/08 04:33:31;;;;;;;;;;;2.00;51.00;;;;;;5035416;28;19913;-59
2022/01/08 04:35:56;;;;;;;;;;;2.10;51.00;;;;;;5035738;28;19910;-59
2022/01/08 04:38:23;;;;;;;;;;;2.10;50.90;;;;;;5034267;28;20387;-58
2022/01/08 04:40:48;;;;;;;;;;;2.20;51.20;;;;;;5035610;28;20373;-60
2022/01/08 04:43:14;;;;;;;;;;;2.00;51.50;;;;;;5035209;28;19917;-59
2022/01/08 04:45:40;;;;;;;;;;;1.70;51.90;;;;;;5035563;28;19909;-59
2022/01/08 04:48:06;;;;;;;;;;;1.70;52.20;;;;;;5035372;28;20280;-58
2022/01/08 04:50:32;;;;;;;;;;;1.90;52.30;;;;;;5035140;28;19913;-61
2022/01/08 04:52:58;;;;;;;;;;;2.00;51.80;;;;;;5035311;28;19944;-59
2022/01/08 04:55:24;;;;;;;;;;;2.00;51.60;;;;;;5035254;28;19917;-58
2022/01/08 04:57:50;;;;;;;;;;;2.00;51.80;;;;;;5035368;28;19915;-57
2022/01/08 05:00:16;;;;;;;;;;;2.00;51.70;;;;;;5035285;28;19917;-60
2022/01/08 05:02:42;;;;;;;;;;;1.90;51.80;;;;;;5034867;28;19963;-59
2022/01/08 05:05:08;;;;;;;;;;;1.80;52.10;;;;;;5035190;28;19913;-59
2022/01/08 05:07:33;;;;;;;;;;;1.80;52.60;;;;;;5035117;28;19971;-58
2022/01/08 05:09:59;;;;;;;;;;;1.80;51.80;;;;;;5035039;28;20357;-60
2022/01/08 05:12:24;;;;;;;;;;;2.00;51.40;;;;;;5035021;28;19995;-59
2022/01/08 05:14:50;;;;;;;;;;;2.00;51.40;;;;;;5034721;28;19909;-59
2022/01/08 05:17:16;;;;;;;;;;;2.00;51.50;;;;;;5034710;28;19909;-62
2022/01/08 05:22:09;;;;;;;;;;;1.80;52.80;;;;;;5034829;28;19974;-59
2022/01/08 05:24:35;;;;;;;;;;;1.90;52.70;;;;;;5034583;28;19999;-60
2022/01/08 05:27:03;;;;;;;;;;;1.80;52.50;;;;;;5034472;28;20006;-61
2022/01/08 05:29:29;;;;;;;;;;;1.90;52.50;;;;;;5034590;28;19937;-58
2022/01/08 05:31:55;;;;;;;;;;;1.80;52.40;;;;;;5034382;28;19917;-58
2022/01/08 05:34:20;;;;;;;;;;;1.90;52.10;;;;;;5034432;28;19920;-60
2022/01/08 05:36:46;;;;;;;;;;;2.00;51.60;;;;;;5034496;28;20004;-61
2022/01/08 05:39:11;;;;;;;;;;;2.00;51.50;;;;;;5034202;28;19921;-59
2022/01/08 05:41:37;;;;;;;;;;;2.10;51.70;;;;;;5034417;28;19909;-58
2022/01/08 05:44:02;;;;;;;;;;;2.00;51.70;;;;;;5034333;28;19909;-60
2022/01/08 05:46:28;;;;;;;;;;;2.00;51.70;;;;;;5034064;28;20019;-59
2022/01/08 05:48:54;;;;;;;;;;;1.90;51.80;;;;;;5034058;28;19913;-58
2022/01/08 05:51:19;;;;;;;;;;;2.00;51.80;;;;;;5034051;28;19955;-59
2022/01/08 05:53:45;;;;;;;;;;;2.00;51.80;;;;;;5034036;28;20384;-59
2022/01/08 05:56:10;;;;;;;;;;;2.00;51.90;;;;;;5034299;28;19909;-60
2022/01/08 05:58:38;;;;;;;;;;;2.00;52.10;;;;;;5034013;28;19916;-60
2022/01/08 06:01:04;;;;;;;;;;;1.90;52.40;;;;;;5034059;28;19913;-59
2022/01/08 06:03:29;;;;;;;;;;;1.90;52.60;;;;;;5033878;28;20272;-59
2022/01/08 06:05:55;;;;;;;;;;;1.70;52.70;;;;;;5034001;28;19916;-58
2022/01/08 06:08:20;;;;;;;;;;;1.70;53.30;;;;;;5033834;28;19916;-59
2022/01/08 06:10:46;;;;;;;;;;;1.60;54.00;;;;;;5033787;28;20297;-60
2022/01/08 06:13:11;;;;;;;;;;;1.80;53.40;;;;;;5033664;28;19929;-59
2022/01/08 06:15:37;;;;;;;;;;;2.00;53.20;;;;;;5016128;28;19996;-60
2022/01/08 06:18:02;;;;;;;;;;;2.10;52.90;;;;;;5033613;28;19913;-60
2022/01/08 06:20:28;;;;;;;;;;;2.10;52.90;;;;;;5033634;28;20352;-59
2022/01/08 06:22:53;;;;;;;;;;;2.00;52.80;;;;;;5033751;28;20012;-59
2022/01/08 06:25:19;;;;;;;;;;;2.10;52.50;;;;;;5033563;28;19916;-60
2022/01/08 06:27:45;;;;;;;;;;;2.00;52.20;;;;;;5033673;28;19996;-59
2022/01/08 06:30:10;;;;;;;;;;;2.10;52.50;;;;;;5033451;28;19910;-61
2022/01/08 06:32:36;;;;;;;;;;;1.90;52.50;;;;;;5033485;28;19967;-59
2022/01/08 06:35:01;;;;;;;;;;;2.00;52.50;;;;;;5033522;28;19955;-60
2022/01/08 06:37:27;;;;;;;;;;;2.00;52.20;;;;;;5033507;28;19993;-61
2022/01/08 06:39:52;;;;;;;;;;;2.10;52.30;;;;;;5033275;28;20381;-59
2022/01/08 06:42:18;;;;;;;;;;;2.00;52.00;;;;;;5033411;28;19924;-59
2022/01/08 06:44:43;;;;;;;;;;;1.70;52.70;;;;;;5015577;28;19952;-59
2022/01/08 06:47:09;;;;;;;;;;;1.60;53.10;;;;;;5033395;28;19913;-59
2022/01/08 06:49:35;;;;;;;;;;;1.50;52.90;;;;;;5033057;28;19920;-60
2022/01/08 06:52:00;;;;;;;;;;;1.50;53.20;;;;;;5033359;28;19936;-62
2022/01/08 06:54:26;;;;;;;;;;;1.60;53.30;;;;;;5033072;28;20284;-57
2022/01/08 06:56:52;;;;;;;;;;;1.50;53.40;;;;;;5033268;28;19909;-58
2022/01/08 06:59:17;;;;;;;;;;;1.50;53.50;;;;;;5033397;28;20348;-59
2022/01/08 07:01:43;;;;;;;;;;;1.60;53.00;;;;;;5039555;28;19915;-59
2022/01/08 07:04:08;;;;;;;;;;;1.70;53.00;;;;;;5039973;28;19964;-57
2022/01/08 07:06:34;;;;;;;;;;;1.80;52.70;;;;;;5039795;28;19919;-58
2022/01/08 07:08:59;;;;;;;;;;;1.80;52.30;;;;;;5040075;28;19949;-58
2022/01/08 07:11:25;;;;;;;;;;;1.90;52.20;;;;;;5040139;28;19956;-58
2022/01/08 07:13:50;;;;;;;;;;;1.70;52.40;;;;;;5040512;28;19910;-57
2022/01/08 07:16:16;;;;;;;;;;;1.70;52.50;;;;;;5040553;28;19909;-58
2022/01/08 07:18:42;;;;;;;;;;;1.90;52.10;;;;;;5039978;28;19913;-57
2022/01/08 07:21:07;;;;;;;;;;;1.90;52.10;;;;;;5039462;28;20308;-58
2022/01/08 07:23:33;;;;;;;;;;;2.00;52.00;;;;;;5039448;28;20360;-56
2022/01/08 07:25:58;;;;;;;;;;;2.10;51.30;;;;;;5039530;28;19932;-60
2022/01/08 07:28:24;;;;;;;;;;;2.00;51.40;;;;;;5039571;28;19912;-58
2022/01/08 07:30:49;;;;;;;;;;;1.90;51.80;;;;;;5039352;28;19913;-57
2022/01/08 07:33:15;;;;;;;;;;;2.70;61.30;;;;;;5039165;28;19921;-56
2022/01/08 07:35:40;;;;;;;;;;;3.00;60.40;;;;;;5038876;28;19909;-55
2022/01/08 07:38:06;;;;;;;;;;;2.70;51.30;;;;;;5039159;28;19924;-56
2022/01/08 07:40:32;;;;;;;;;;;2.70;52.10;;;;;;5039259;28;19936;-57
2022/01/08 07:42:57;;;;;;;;;;;2.60;50.00;;;;;;5038983;28;19937;-55
2022/01/08 07:45:23;;;;;;;;;;;2.20;50.10;;;;;;5039043;28;20004;-55
2022/01/08 07:47:49;;;;;;;;;;;2.10;50.80;;;;;;5039521;28;19909;-55
2022/01/08 07:50:14;;;;;;;;;;;2.40;50.40;;;;;;5039257;28;20365;-55
2022/01/08 07:52:40;;;;;;;;;;;2.60;49.70;;;;;;5021241;28;19921;-55
2022/01/08 07:55:06;;;;;;;;;;;2.90;49.20;;;;;;5039315;28;19917;-55
2022/01/08 07:57:32;;;;;;;;;;;2.70;48.90;;;;;;5038908;28;19909;-62
2022/01/08 07:59:57;;;;;;;;;;;3.00;48.60;;;;;;5038991;28;19935;-55
2022/01/08 08:02:23;;;;;;;;;;;2.90;48.50;;;;;;5039277;28;19913;-57
2022/01/08 08:04:49;;;;;;;;;;;2.90;48.50;;;;;;5038903;28;20357;-58
2022/01/08 08:07:24;;;;;;;;;;;3.00;47.70;;;;;;5040433;28;19996;-56
2022/01/08 08:09:50;;;;;;;;;;;2.90;48.10;;;;;;5058640;28;20376;-56
2022/01/08 08:12:15;;;;;;;;;;;2.70;47.90;;;;;;5056416;28;20011;-59
2022/01/08 08:14:41;;;;;;;;;;;2.70;48.20;;;;;;5055787;28;20031;-57
2022/01/08 08:17:06;;;;;;;;;;;2.70;47.90;;;;;;5055739;28;19948;-59
2022/01/08 08:19:32;;;;;;;;;;;2.80;47.80;;;;;;5055796;28;19955;-56
2022/01/08 08:21:58;;;;;;;;;;;2.80;48.00;;;;;;5055707;28;19908;-56
2022/01/08 08:24:23;;;;;;;;;;;3.10;47.70;;;;;;5055671;28;19908;-57
2022/01/08 08:26:49;;;;;;;;;;;3.10;47.40;;;;;;5055530;28;19908;-57
2022/01/08 08:29:14;;;;;;;;;;;3.10;46.50;;;;;;5055474;28;19908;-58
2022/01/08 08:31:40;;;;;;;;;;;3.10;46.70;;;;;;5055482;28;19959;-57
2022/01/08 08:34:05;;;;;;;;;;;3.20;46.70;;;;;;5055289;28;19913;-58
2022/01/08 08:36:31;;;;;;;;;;;3.40;46.50;;;;;;5055321;28;19913;-59
2022/01/08 08:38:57;;;;;;;;;;;3.80;46.40;;;;;;5055242;28;20389;-60
2022/01/08 08:41:22;;;;;;;;;;;3.90;45.60;;;;;;5055216;28;19937;-58
2022/01/08 08:43:48;;;;;;;;;;;4.00;45.60;;;;;;5055138;28;19909;-58
2022/01/08 08:46:13;;;;;;;;;;;4.10;45.30;;;;;;5055235;28;19909;-60
2022/01/08 08:48:39;;;;;;;;;;;3.80;45.50;;;;;;5054961;28;19912;-57
2022/01/08 08:51:04;;;;;;;;;;;3.90;45.60;;;;;;5055060;28;19920;-59
2022/01/08 08:53:30;;;;;;;;;;;3.80;45.50;;;;;;5054857;28;20003;-58
2022/01/08 08:55:56;;;;;;;;;;;4.00;45.50;;;;;;5055041;28;19950;-63
2022/01/08 08:58:21;;;;;;;;;;;4.10;45.00;;;;;;5055048;28;19963;-58
2022/01/08 09:00:47;;;;;;;;;;;4.00;45.20;;;;;;5036854;28;19909;-57
2022/01/08 09:03:13;;;;;;;;;;;4.10;45.40;;;;;;5054564;28;20364;-57
2022/01/08 09:05:38;;;;;;;;;;;4.10;45.30;;;;;;5054790;28;19909;-56
2022/01/08 09:08:04;;;;;;;;;;;4.10;45.70;;;;;;5054853;28;19919;-56
2022/01/08 09:10:30;;;;;;;;;;;4.20;45.20;;;;;;5054781;28;19912;-56
2022/01/08 09:12:55;;;;;;;;;;;4.20;45.10;;;;;;5036570;28;19923;-56
2022/01/08 09:15:24;;;;;;;;;;;4.10;45.60;;;;;;5054524;28;19909;-55
2022/01/08 09:17:50;;;;;;;;;;;4.10;45.30;;;;;;5054709;28;19916;-55
2022/01/08 09:20:15;;;;;;;;;;;4.10;45.20;;;;;;5054576;28;19995;-59
2022/01/08 09:22:41;;;;;;;;;;;4.00;46.10;;;;;;5036114;28;19992;-55
2022/01/08 09:25:08;;;;;;;;;;;4.20;45.40;;;;;;5053621;28;19954;-55
2022/01/08 09:27:34;;;;;;;;;;;4.30;45.40;;;;;;5054036;28;19909;-55
2022/01/08 09:29:59;;;;;;;;;;;4.30;45.20;;;;;;5054024;28;19995;-55
2022/01/08 09:32:25;;;;;;;;;;;3.90;45.30;;;;;;5053553;28;20356;-54
2022/01/08 09:34:51;;;;;;;;;;;3.80;46.00;;;;;;5053813;28;19909;-55
2022/01/08 09:37:17;;;;;;;;;;;3.80;46.10;;;;;;5054158;28;19909;-56
2022/01/08 09:39:42;;;;;;;;;;;4.00;46.30;;;;;;5053983;28;20371;-56
2022/01/08 09:42:08;;;;;;;;;;;4.30;45.70;;;;;;5053833;28;20261;-55
2022/01/08 09:44:35;;;;;;;;;;;4.30;45.40;;;;;;5053424;28;20058;-57
2022/01/08 09:47:01;;;;;;;;;;;4.50;44.90;;;;;;5050817;28;19920;-66
2022/01/08 09:49:27;;;;;;;;;;;4.60;44.80;;;;;;5053381;28;20019;-57
2022/01/08 09:51:52;;;;;;;;;;;4.70;43.90;;;;;;5053384;28;20347;-59
2022/01/08 09:54:18;;;;;;;;;;;4.80;43.20;;;;;;5053261;28;19909;-58
2022/01/08 09:56:43;;;;;;;;;;;4.90;43.40;;;;;;5053643;28;19921;-59
2022/01/08 09:59:09;;;;;;;;;;;5.00;43.30;;;;;;5053963;28;20319;-59
2022/01/08 10:01:35;;;;;;;;;;;5.00;42.80;;;;;;5053682;28;20269;-55
2022/01/08 10:04:02;;;;;;;;;;;5.20;46.90;;;;;;5053057;28;20011;-67
2022/01/08 10:06:29;;;;;;;;;;;5.30;43.00;;;;;;5053600;28;19992;-58
2022/01/08 10:08:55;;;;;;;;;;;5.40;42.40;;;;;;5053612;28;19919;-60
2022/01/08 10:11:21;;;;;;;;;;;5.40;42.30;;;;;;5053927;28;19913;-56
2022/01/08 10:13:51;;;;;;;;;;;5.50;41.90;;;;;;5054684;28;19951;-60
2022/01/08 10:19:03;;;;;;;;;;;5.50;40.30;;;;;;5053610;28;20008;-62
2022/01/08 10:21:29;;;;;;;;;;;5.60;40.10;;;;;;5053521;28;19948;-66
2022/01/08 10:23:56;;;;;;;;;;;5.80;39.70;;;;;;5053394;28;19999;-57
2022/01/08 10:26:31;;;;;;;;;;;5.70;38.40;;;;;;5053383;28;19916;-56
2022/01/08 10:28:57;;;;;;;;;;;5.80;38.90;;;;;;5053324;28;19909;-56
2022/01/08 10:31:27;;;;;;;;;;;5.90;38.50;;;;;;5035402;28;19928;-56
2022/01/08 10:34:13;;;;;;;;;;;5.90;38.10;;;;;;5053240;28;19913;-59
2022/01/08 10:36:40;;;;;;;;;;;6.10;37.20;;;;;;5052111;28;19909;-58
2022/01/08 10:39:08;;;;;;;;;;;6.10;36.80;;;;;;5053216;28;19995;-56
2022/01/08 10:41:37;;;;;;;;;;;6.10;35.90;;;;;;5053162;28;19913;-57
2022/01/08 10:44:19;;;;;;;;;;;6.30;35.80;;;;;;5052817;28;19959;-58
2022/01/08 10:46:51;;;;;;;;;;;6.30;34.80;;;;;;5053094;28;19912;-57
2022/01/08 10:49:17;;;;;;;;;;;6.40;34.60;;;;;;5053182;28;20000;-62
2022/01/08 10:51:42;;;;;;;;;;;6.30;34.90;;;;;;5052282;28;20436;-59
2022/01/08 10:54:09;;;;;;;;;;;6.40;34.10;;;;;;5034445;28;19913;-56
2022/01/08 10:56:37;;;;;;;;;;;6.40;34.20;;;;;;5052448;28;20376;-57
2022/01/08 10:59:02;;;;;;;;;;;6.50;34.30;;;;;;5052320;28;19909;-60
2022/01/08 11:01:40;;;;;;;;;;;6.50;34.20;;;;;;5052370;28;19931;-57
2022/01/08 11:04:07;;;;;;;;;;;6.50;33.00;;;;;;5052059;28;19999;-62
2022/01/08 11:06:32;;;;;;;;;;;6.50;33.00;;;;;;5063429;28;19909;-56
2022/01/08 11:09:02;;;;;;;;;;;6.70;33.10;;;;;;5052196;28;19909;-56
2022/01/08 11:11:30;;;;;;;;;;;6.80;32.90;;;;;;5052282;28;19955;-57
2022/01/08 11:14:06;;;;;;;;;;;6.80;31.50;;;;;;5052107;28;19917;-60
2022/01/08 11:16:32;;;;;;;;;;;6.90;31.10;;;;;;5052564;28;20315;-59
2022/01/08 11:18:58;;;;;;;;;;;7.00;31.30;;;;;;5052723;28;19913;-59
2022/01/08 11:21:25;;;;;;;;;;;7.20;30.80;;;;;;5052931;28;20316;-55
2022/01/08 11:23:51;;;;;;;;;;;6.90;31.50;;;;;;5052855;28;19909;-59
2022/01/08 11:26:17;;;;;;;;;;;7.00;32.10;;;;;;5052524;28;19915;-58
2022/01/08 11:28:46;;;;;;;;;;;7.20;32.40;;;;;;5048099;28;19916;-57
2022/01/08 11:31:15;;;;;;;;;;;7.40;31.90;;;;;;5052508;28;19909;-55
2022/01/08 11:33:44;;;;;;;;;;;7.50;32.90;;;;;;5052473;28;20399;-56
2022/01/08 11:36:10;;;;;;;;;;;7.70;32.20;;;;;;5052399;28;19917;-56
2022/01/08 11:38:36;;;;;;;;;;;7.90;31.00;;;;;;5052065;28;20285;-58
2022/01/08 11:41:02;;;;;;;;;;;7.80;29.30;;;;;;5052384;28;19919;-61
2022/01/08 11:43:28;;;;;;;;;;;7.80;29.90;;;;;;5052182;28;19909;-55
2022/01/08 11:46:01;;;;;;;;;;;7.90;30.00;;;;;;5052509;28;20276;-55
2022/01/08 11:48:29;;;;;;;;;;;7.90;29.70;;;;;;5055989;28;20007;-55
2022/01/08 11:50:57;;;;;;;;;;;8.00;29.50;;;;;;5056125;28;20250;-55
2022/01/08 11:53:26;;;;;;;;;;;8.10;28.30;;;;;;5055715;28;19917;-56
2022/01/08 11:55:53;;;;;;;;;;;8.00;27.80;;;;;;5055862;28;19909;-58
2022/01/08 11:58:20;;;;;;;;;;;7.90;27.00;;;;;;5055898;28;19947;-56
2022/01/08 12:00:47;;;;;;;;;;;7.90;27.70;;;;;;5055755;28;19913;-63
2022/01/08 12:03:24;;;;;;;;;;;7.80;26.70;;;;;;5055823;28;19963;-55
2022/01/08 12:05:49;;;;;;;;;;;7.80;27.10;;;;;;5055759;28;19909;-67
2022/01/08 12:08:17;;;;;;;;;;;7.90;27.30;;;;;;5055942;28;20018;-55
2022/01/08 12:10:56;;;;;;;;;;;7.90;26.80;;;;;;5055757;28;19913;-58
2022/01/08 12:13:39;;;;;;;;;;;8.00;27.30;;;;;;5055522;28;19924;-59
2022/01/08 12:16:05;;;;;;;;;;;8.10;27.40;;;;;;5055920;28;20391;-60
2022/01/08 12:18:50;;;;;;;;;;;8.20;27.50;;;;;;5055744;28;19909;-62
2022/01/08 12:21:29;;;;;;;;;;;8.30;26.70;;;;;;5055227;28;19995;-60
2022/01/08 12:23:54;;;;;;;;;;;8.20;25.90;;;;;;5055361;28;19913;-57
2022/01/08 12:26:20;;;;;;;;;;;8.20;25.30;;;;;;5055315;28;20395;-58
2022/01/08 12:28:53;;;;;;;;;;;8.20;24.80;;;;;;5055271;28;19908;-54
2022/01/08 12:31:25;;;;;;;;;;;8.30;24.90;;;;;;5055279;28;20017;-56
2022/01/08 12:34:14;;;;;;;;;;;8.20;24.80;;;;;;5055394;28;19917;-61
2022/01/08 12:36:55;;;;;;;;;;;8.00;24.20;;;;;;5055325;28;19909;-63
2022/01/08 12:39:25;;;;;;;;;;;7.80;24.10;;;;;;5054812;28;20388;-63
2022/01/08 12:42:11;;;;;;;;;;;7.90;22.60;;;;;;5055086;28;19909;-59
2022/01/08 12:44:38;;;;;;;;;;;8.00;22.70;;;;;;5054777;28;20265;-56
2022/01/08 12:47:04;;;;;;;;;;;7.90;23.00;;;;;;5055142;28;19954;-58
2022/01/08 12:49:29;;;;;;;;;;;7.70;23.30;;;;;;5054875;28;19925;-54
2022/01/08 12:51:57;;;;;;;;;;;7.80;23.30;;;;;;5055049;28;19913;-55
2022/01/08 12:54:23;;;;;;;;;;;8.00;23.50;;;;;;5054875;28;19916;-55
2022/01/08 12:56:53;;;;;;;;;;;8.10;23.00;;;;;;5056870;28;19912;-56
2022/01/08 12:59:19;;;;;;;;;;;8.10;23.50;;;;;;5058882;28;19916;-58
2022/01/08 13:01:46;;;;;;;;;;;8.20;23.60;;;;;;5057465;28;19919;-57
2022/01/08 13:04:16;;;;;;;;;;;8.20;23.60;;;;;;5055964;28;19915;-59
2022/01/08 13:06:42;;;;;;;;;;;8.20;22.20;;;;;;5053967;28;19934;-64
2022/01/08 13:09:08;;;;;;;;;;;8.30;22.80;;;;;;5050478;28;20345;-60
2022/01/08 13:11:34;;;;;;;;;;;8.30;23.00;;;;;;5058949;28;19927;-59
2022/01/08 13:14:00;;;;;;;;;;;8.50;22.90;;;;;;5076953;28;19923;-57
2022/01/08 13:16:30;;;;;;;;;;;8.40;23.60;;;;;;5079458;28;19909;-57
2022/01/08 13:18:57;;;;;;;;;;;8.40;23.40;;;;;;5059362;28;19921;-57
2022/01/08 13:21:29;;;;;;;;;;;8.40;23.20;;;;;;5055118;28;19936;-57
2022/01/08 13:23:56;;;;;;;;;;;8.50;23.60;;;;;;5056062;28;19920;-62
2022/01/08 13:26:47;;;;;;;;;;;8.50;24.10;;;;;;5052826;28;19963;-59
2022/01/08 13:29:21;;;;;;;;;;;8.60;24.60;;;;;;5061997;28;19912;-57
2022/01/08 13:31:50;;;;;;;;;;;8.60;24.30;;;;;;5056282;28;20008;-58
2022/01/08 13:34:16;;;;;;;;;;;8.50;24.20;;;;;;5053331;28;20365;-62
2022/01/08 13:36:50;;;;;;;;;;;8.50;22.80;;;;;;5054289;28;19952;-58
2022/01/08 13:39:24;;;;;;;;;;;8.70;22.90;;;;;;5053994;28;19928;-58
2022/01/08 13:41:49;;;;;;;;;;;8.70;22.90;;;;;;5054043;28;19909;-63
2022/01/08 13:44:16;;;;;;;;;;;8.60;21.80;;;;;;5054108;28;19909;-58
2022/01/08 13:46:42;;;;;;;;;;;8.50;22.70;;;;;;5053726;28;20043;-58
2022/01/08 13:49:08;;;;;;;;;;;8.50;23.20;;;;;;5053698;28;19972;-61
2022/01/08 13:51:37;;;;;;;;;;;8.60;23.40;;;;;;5051823;28;19978;-61
2022/01/08 13:54:07;;;;;;;;;;;8.60;23.60;;;;;;5053666;28;19919;-66
2022/01/08 13:56:33;;;;;;;;;;;8.60;23.90;;;;;;5054050;28;19916;-61
2022/01/08 13:59:03;;;;;;;;;;;8.20;21.80;;;;;;5054083;28;19909;-58
2022/01/08 14:01:37;;;;;;;;;;;8.40;21.70;;;;;;5053987;28;20353;-58
2022/01/08 14:04:04;;;;;;;;;;;8.30;22.70;;;;;;5055597;28;19919;-60
2022/01/08 14:06:31;;;;;;;;;;;8.10;23.10;;;;;;5056235;28;20392;-59
2022/01/08 14:08:58;;;;;;;;;;;8.10;22.80;;;;;;5073997;28;19952;-57
2022/01/08 14:11:24;;;;;;;;;;;7.90;24.00;;;;;;5073392;28;20513;-59
2022/01/08 14:13:55;;;;;;;;;;;8.00;24.70;;;;;;5056448;28;19920;-59
2022/01/08 14:16:30;;;;;;;;;;;8.10;25.10;;;;;;5053047;28;20283;-59
2022/01/08 14:19:08;;;;;;;;;;;8.10;25.00;;;;;;5054507;28;19913;-58
2022/01/08 14:21:33;;;;;;;;;;;7.80;25.40;;;;;;5072713;28;19908;-57
2022/01/08 14:24:12;;;;;;;;;;;7.70;24.00;;;;;;5072956;28;20360;-58
2022/01/08 14:26:37;;;;;;;;;;;7.70;24.70;;;;;;5072959;28;19908;-57
2022/01/08 14:29:07;;;;;;;;;;;7.80;24.90;;;;;;5073120;28;19985;-55
2022/01/08 14:31:33;;;;;;;;;;;7.80;25.20;;;;;;5073177;28;19999;-58
2022/01/08 14:34:04;;;;;;;;;;;7.90;24.80;;;;;;5073412;28;19919;-57
2022/01/08 14:36:51;;;;;;;;;;;7.90;23.70;;;;;;5073156;28;19919;-58
2022/01/08 14:39:32;;;;;;;;;;;7.80;22.90;;;;;;5056467;28;20007;-58
2022/01/08 14:41:58;;;;;;;;;;;7.80;23.30;;;;;;5051719;28;19908;-58
2022/01/08 14:44:24;;;;;;;;;;;7.80;24.60;;;;;;5052211;28;19931;-56
2022/01/08 14:46:50;;;;;;;;;;;7.60;24.20;;;;;;5061444;28;19943;-56
2022/01/08 14:49:16;;;;;;;;;;;7.50;25.60;;;;;;5072857;28;20415;-58
2022/01/08 14:51:41;;;;;;;;;;;7.30;24.60;;;;;;5058204;28;19936;-56
2022/01/08 14:54:08;;;;;;;;;;;7.30;23.80;;;;;;5047447;28;19955;-56
2022/01/08 14:56:37;;;;;;;;;;;7.40;23.10;;;;;;5057448;28;20308;-57